sensor_id;sensor_type;location;lat;lon;timestamp;P1;durP1;ratioP1;P2;durP2;ratioP2
17650;SDS011;26663;59.302;18.082;2022-07-06T00:00:37;6.95;;;1.40;;
17650;SDS011;26663;59.302;18.082;2022-07-06T00:03:44;5.28;;;1.33;;
17650;SDS011;26663;59.302;18.082;2022-07-06T00:06:56;11.10;;;1.50;;
17650;SDS011;26663;59.302;18.082;2022-07-06T00:10:02;11.23;;;1.73;;
17650;SDS011;26663;59.302;18.082;2022-07-06T00:13:10;11.55;;;1.30;;
17650;SDS011;26663;59.302;18.082;2022-07-06T00:16:15;15.90;;;1.35;;
17650;SDS011;26663;59.302;18.082;2022-07-06T00:19:22;23.83;;;2.20;;
17650;SDS011;26663;59.302;18.082;2022-07-06T00:22:27;21.92;;;2.40;;
17650;SDS011;26663;59.302;18.082;2022-07-06T00:25:32;21.30;;;2.38;;
17650;SDS011;26663;59.302;18.082;2022-07-06T00:28:38;10.98;;;2.03;;
17650;SDS011;26663;59.302;18.082;2022-07-06T00:31:43;11.98;;;2.42;;
17650;SDS011;26663;59.302;18.082;2022-07-06T00:34:50;7.22;;;1.60;;
17650;SDS011;26663;59.302;18.082;2022-07-06T00:37:58;10.27;;;2.20;;
17650;SDS011;26663;59.302;18.082;2022-07-06T00:41:03;11.65;;;1.85;;
17650;SDS011;26663;59.302;18.082;2022-07-06T00:44:09;7.78;;;1.35;;
17650;SDS011;26663;59.302;18.082;2022-07-06T00:47:15;15.07;;;1.50;;
17650;SDS011;26663;59.302;18.082;2022-07-06T00:50:22;10.95;;;1.70;;
17650;SDS011;26663;59.302;18.082;2022-07-06T00:53:28;17.35;;;1.58;;
17650;SDS011;26663;59.302;18.082;2022-07-06T00:56:34;29.25;;;2.35;;
17650;SDS011;26663;59.302;18.082;2022-07-06T00:59:39;7.05;;;1.38;;
17650;SDS011;26663;59.302;18.082;2022-07-06T01:02:44;7.85;;;1.60;;
17650;SDS011;26663;59.302;18.082;2022-07-06T01:05:52;11.43;;;1.50;;
17650;SDS011;26663;59.302;18.082;2022-07-06T01:08:58;10.80;;;1.83;;
17650;SDS011;26663;59.302;18.082;2022-07-06T01:12:04;11.32;;;1.48;;
17650;SDS011;26663;59.302;18.082;2022-07-06T01:15:11;9.75;;;1.30;;
17650;SDS011;26663;59.302;18.082;2022-07-06T01:18:18;3.55;;;1.50;;
17650;SDS011;26663;59.302;18.082;2022-07-06T01:21:25;13.07;;;1.40;;
17650;SDS011;26663;59.302;18.082;2022-07-06T01:24:31;6.30;;;1.20;;
17650;SDS011;26663;59.302;18.082;2022-07-06T01:27:36;6.75;;;1.50;;
17650;SDS011;26663;59.302;18.082;2022-07-06T01:30:42;11.02;;;1.35;;
17650;SDS011;26663;59.302;18.082;2022-07-06T01:33:48;9.32;;;1.80;;
17650;SDS011;26663;59.302;18.082;2022-07-06T01:36:55;4.18;;;1.80;;
17650;SDS011;26663;59.302;18.082;2022-07-06T01:40:01;9.57;;;1.88;;
17650;SDS011;26663;59.302;18.082;2022-07-06T01:43:13;5.43;;;1.88;;
17650;SDS011;26663;59.302;18.082;2022-07-06T01:46:19;9.63;;;1.70;;
17650;SDS011;26663;59.302;18.082;2022-07-06T01:49:24;7.07;;;2.13;;
17650;SDS011;26663;59.302;18.082;2022-07-06T01:52:31;5.18;;;2.08;;
17650;SDS011;26663;59.302;18.082;2022-07-06T01:55:38;8.18;;;2.00;;
17650;SDS011;26663;59.302;18.082;2022-07-06T01:58:43;4.50;;;1.52;;
17650;SDS011;26663;59.302;18.082;2022-07-06T02:01:50;5.30;;;2.28;;
17650;SDS011;26663;59.302;18.082;2022-07-06T02:04:55;6.85;;;2.15;;
17650;SDS011;26663;59.302;18.082;2022-07-06T02:08:01;8.25;;;2.25;;
17650;SDS011;26663;59.302;18.082;2022-07-06T02:11:10;1.92;;;1.80;;
17650;SDS011;26663;59.302;18.082;2022-07-06T02:14:17;5.55;;;2.50;;
17650;SDS011;26663;59.302;18.082;2022-07-06T02:17:23;3.88;;;2.10;;
17650;SDS011;26663;59.302;18.082;2022-07-06T02:20:29;9.45;;;2.50;;
17650;SDS011;26663;59.302;18.082;2022-07-06T02:23:36;3.60;;;1.90;;
17650;SDS011;26663;59.302;18.082;2022-07-06T02:26:41;4.93;;;1.88;;
17650;SDS011;26663;59.302;18.082;2022-07-06T02:29:47;6.82;;;1.83;;
17650;SDS011;26663;59.302;18.082;2022-07-06T02:32:52;14.60;;;2.30;;
17650;SDS011;26663;59.302;18.082;2022-07-06T02:35:57;8.73;;;2.10;;
17650;SDS011;26663;59.302;18.082;2022-07-06T02:39:04;3.17;;;2.28;;
17650;SDS011;26663;59.302;18.082;2022-07-06T02:42:10;8.50;;;1.98;;
17650;SDS011;26663;59.302;18.082;2022-07-06T02:45:15;1.85;;;1.70;;
17650;SDS011;26663;59.302;18.082;2022-07-06T02:48:20;10.40;;;2.00;;
17650;SDS011;26663;59.302;18.082;2022-07-06T02:51:27;7.28;;;1.60;;
17650;SDS011;26663;59.302;18.082;2022-07-06T02:54:34;3.30;;;2.20;;
17650;SDS011;26663;59.302;18.082;2022-07-06T02:57:39;4.78;;;1.90;;
17650;SDS011;26663;59.302;18.082;2022-07-06T03:00:45;2.90;;;1.50;;
17650;SDS011;26663;59.302;18.082;2022-07-06T03:03:51;5.88;;;1.80;;
17650;SDS011;26663;59.302;18.082;2022-07-06T03:06:57;2.33;;;1.50;;
17650;SDS011;26663;59.302;18.082;2022-07-06T03:10:04;4.97;;;1.70;;
17650;SDS011;26663;59.302;18.082;2022-07-06T03:13:13;5.22;;;2.03;;
17650;SDS011;26663;59.302;18.082;2022-07-06T03:16:20;6.30;;;1.38;;
17650;SDS011;26663;59.302;18.082;2022-07-06T03:19:26;2.75;;;1.40;;
17650;SDS011;26663;59.302;18.082;2022-07-06T03:22:33;5.15;;;1.83;;
17650;SDS011;26663;59.302;18.082;2022-07-06T03:25:41;2.65;;;1.40;;
17650;SDS011;26663;59.302;18.082;2022-07-06T03:28:47;5.68;;;1.70;;
17650;SDS011;26663;59.302;18.082;2022-07-06T03:31:54;6.43;;;1.60;;
17650;SDS011;26663;59.302;18.082;2022-07-06T03:35:00;5.60;;;1.30;;
17650;SDS011;26663;59.302;18.082;2022-07-06T03:38:11;5.72;;;1.33;;
17650;SDS011;26663;59.302;18.082;2022-07-06T03:41:19;1.75;;;1.50;;
17650;SDS011;26663;59.302;18.082;2022-07-06T03:44:25;6.70;;;1.50;;
17650;SDS011;26663;59.302;18.082;2022-07-06T03:47:30;9.50;;;1.30;;
17650;SDS011;26663;59.302;18.082;2022-07-06T03:50:36;3.67;;;1.67;;
17650;SDS011;26663;59.302;18.082;2022-07-06T03:53:41;3.20;;;1.45;;
17650;SDS011;26663;59.302;18.082;2022-07-06T03:56:48;7.45;;;1.60;;
17650;SDS011;26663;59.302;18.082;2022-07-06T03:59:54;1.25;;;1.25;;
17650;SDS011;26663;59.302;18.082;2022-07-06T04:03:00;8.20;;;1.48;;
17650;SDS011;26663;59.302;18.082;2022-07-06T04:06:10;3.15;;;1.40;;
17650;SDS011;26663;59.302;18.082;2022-07-06T04:09:16;4.85;;;1.60;;
17650;SDS011;26663;59.302;18.082;2022-07-06T04:12:23;4.35;;;1.42;;
17650;SDS011;26663;59.302;18.082;2022-07-06T04:15:29;4.38;;;1.50;;
17650;SDS011;26663;59.302;18.082;2022-07-06T04:18:36;3.08;;;1.38;;
17650;SDS011;26663;59.302;18.082;2022-07-06T04:21:42;2.47;;;1.60;;
17650;SDS011;26663;59.302;18.082;2022-07-06T04:24:49;3.17;;;1.20;;
17650;SDS011;26663;59.302;18.082;2022-07-06T04:27:55;5.47;;;2.00;;
17650;SDS011;26663;59.302;18.082;2022-07-06T04:31:02;3.42;;;1.48;;
17650;SDS011;26663;59.302;18.082;2022-07-06T04:34:08;5.57;;;1.55;;
17650;SDS011;26663;59.302;18.082;2022-07-06T04:37:13;4.65;;;1.50;;
17650;SDS011;26663;59.302;18.082;2022-07-06T04:40:19;5.25;;;1.40;;
17650;SDS011;26663;59.302;18.082;2022-07-06T04:43:29;2.67;;;1.48;;
17650;SDS011;26663;59.302;18.082;2022-07-06T04:46:35;11.10;;;1.42;;
17650;SDS011;26663;59.302;18.082;2022-07-06T04:49:40;5.00;;;1.27;;
17650;SDS011;26663;59.302;18.082;2022-07-06T04:52:45;3.58;;;1.50;;
17650;SDS011;26663;59.302;18.082;2022-07-06T04:55:51;6.95;;;1.65;;
17650;SDS011;26663;59.302;18.082;2022-07-06T04:58:59;9.50;;;2.10;;
17650;SDS011;26663;59.302;18.082;2022-07-06T05:02:04;5.60;;;1.40;;
17650;SDS011;26663;59.302;18.082;2022-07-06T05:05:10;5.18;;;1.60;;
17650;SDS011;26663;59.302;18.082;2022-07-06T05:08:16;7.28;;;1.40;;
17650;SDS011;26663;59.302;18.082;2022-07-06T05:11:22;5.45;;;1.67;;
17650;SDS011;26663;59.302;18.082;2022-07-06T05:14:29;7.47;;;1.50;;
17650;SDS011;26663;59.302;18.082;2022-07-06T05:17:34;7.70;;;1.50;;
17650;SDS011;26663;59.302;18.082;2022-07-06T05:20:41;5.38;;;1.20;;
17650;SDS011;26663;59.302;18.082;2022-07-06T05:23:48;2.95;;;1.58;;
17650;SDS011;26663;59.302;18.082;2022-07-06T05:26:53;5.57;;;1.63;;
17650;SDS011;26663;59.302;18.082;2022-07-06T05:30:00;4.57;;;1.50;;
17650;SDS011;26663;59.302;18.082;2022-07-06T05:33:10;3.95;;;1.42;;
17650;SDS011;26663;59.302;18.082;2022-07-06T05:36:15;3.65;;;1.40;;
17650;SDS011;26663;59.302;18.082;2022-07-06T05:39:22;1.98;;;1.30;;
17650;SDS011;26663;59.302;18.082;2022-07-06T05:42:28;4.15;;;1.70;;
17650;SDS011;26663;59.302;18.082;2022-07-06T05:45:35;5.07;;;1.40;;
17650;SDS011;26663;59.302;18.082;2022-07-06T05:48:40;3.45;;;1.30;;
17650;SDS011;26663;59.302;18.082;2022-07-06T05:52:04;2.95;;;1.40;;
17650;SDS011;26663;59.302;18.082;2022-07-06T05:55:10;3.22;;;1.48;;
17650;SDS011;26663;59.302;18.082;2022-07-06T05:58:19;4.32;;;1.48;;
17650;SDS011;26663;59.302;18.082;2022-07-06T06:01:26;3.45;;;1.70;;
17650;SDS011;26663;59.302;18.082;2022-07-06T06:04:42;2.05;;;1.30;;
17650;SDS011;26663;59.302;18.082;2022-07-06T06:07:48;7.28;;;2.00;;
17650;SDS011;26663;59.302;18.082;2022-07-06T06:10:57;4.70;;;1.40;;
17650;SDS011;26663;59.302;18.082;2022-07-06T06:14:04;3.90;;;1.88;;
17650;SDS011;26663;59.302;18.082;2022-07-06T06:17:11;3.85;;;1.20;;
17650;SDS011;26663;59.302;18.082;2022-07-06T06:20:16;1.55;;;1.35;;
17650;SDS011;26663;59.302;18.082;2022-07-06T06:23:22;3.08;;;1.40;;
17650;SDS011;26663;59.302;18.082;2022-07-06T06:26:27;2.55;;;1.15;;
17650;SDS011;26663;59.302;18.082;2022-07-06T06:29:32;4.35;;;1.40;;
17650;SDS011;26663;59.302;18.082;2022-07-06T06:32:40;1.95;;;1.65;;
17650;SDS011;26663;59.302;18.082;2022-07-06T06:35:46;4.53;;;1.48;;
17650;SDS011;26663;59.302;18.082;2022-07-06T06:38:52;5.45;;;1.40;;
17650;SDS011;26663;59.302;18.082;2022-07-06T06:41:59;7.18;;;1.60;;
17650;SDS011;26663;59.302;18.082;2022-07-06T06:45:09;5.43;;;1.20;;
17650;SDS011;26663;59.302;18.082;2022-07-06T06:48:17;6.97;;;1.73;;
17650;SDS011;26663;59.302;18.082;2022-07-06T06:51:23;5.63;;;1.50;;
17650;SDS011;26663;59.302;18.082;2022-07-06T06:54:28;4.78;;;1.25;;
17650;SDS011;26663;59.302;18.082;2022-07-06T06:57:33;2.42;;;1.40;;
17650;SDS011;26663;59.302;18.082;2022-07-06T07:00:38;2.65;;;1.20;;
17650;SDS011;26663;59.302;18.082;2022-07-06T07:03:45;6.03;;;1.50;;
17650;SDS011;26663;59.302;18.082;2022-07-06T07:06:50;2.47;;;1.40;;
17650;SDS011;26663;59.302;18.082;2022-07-06T07:09:55;4.47;;;1.50;;
17650;SDS011;26663;59.302;18.082;2022-07-06T07:13:01;1.50;;;1.20;;
17650;SDS011;26663;59.302;18.082;2022-07-06T07:16:07;2.83;;;1.20;;
17650;SDS011;26663;59.302;18.082;2022-07-06T07:19:15;2.90;;;2.17;;
17650;SDS011;26663;59.302;18.082;2022-07-06T07:22:20;2.30;;;1.33;;
17650;SDS011;26663;59.302;18.082;2022-07-06T07:25:25;1.27;;;1.27;;
17650;SDS011;26663;59.302;18.082;2022-07-06T07:28:31;8.93;;;1.30;;
17650;SDS011;26663;59.302;18.082;2022-07-06T07:31:36;3.67;;;1.40;;
17650;SDS011;26663;59.302;18.082;2022-07-06T07:34:43;3.20;;;1.48;;
17650;SDS011;26663;59.302;18.082;2022-07-06T07:37:48;2.63;;;1.30;;
17650;SDS011;26663;59.302;18.082;2022-07-06T07:40:53;4.43;;;1.85;;
17650;SDS011;26663;59.302;18.082;2022-07-06T07:43:59;1.70;;;1.52;;
17650;SDS011;26663;59.302;18.082;2022-07-06T07:47:05;2.60;;;1.50;;
17650;SDS011;26663;59.302;18.082;2022-07-06T07:50:12;7.30;;;1.42;;
17650;SDS011;26663;59.302;18.082;2022-07-06T07:53:18;1.73;;;1.17;;
17650;SDS011;26663;59.302;18.082;2022-07-06T07:56:23;4.05;;;1.10;;
17650;SDS011;26663;59.302;18.082;2022-07-06T07:59:28;1.67;;;1.10;;
17650;SDS011;26663;59.302;18.082;2022-07-06T08:02:34;1.00;;;1.00;;
17650;SDS011;26663;59.302;18.082;2022-07-06T08:05:40;4.88;;;1.35;;
17650;SDS011;26663;59.302;18.082;2022-07-06T08:08:45;5.88;;;1.20;;
17650;SDS011;26663;59.302;18.082;2022-07-06T08:11:51;4.95;;;1.73;;
17650;SDS011;26663;59.302;18.082;2022-07-06T08:14:56;1.17;;;1.17;;
17650;SDS011;26663;59.302;18.082;2022-07-06T08:18:02;2.33;;;1.30;;
17650;SDS011;26663;59.302;18.082;2022-07-06T08:21:10;2.00;;;1.15;;
17650;SDS011;26663;59.302;18.082;2022-07-06T08:24:30;4.10;;;1.48;;
17650;SDS011;26663;59.302;18.082;2022-07-06T08:27:36;1.35;;;1.20;;
17650;SDS011;26663;59.302;18.082;2022-07-06T08:30:43;1.23;;;1.10;;
17650;SDS011;26663;59.302;18.082;2022-07-06T08:33:48;1.13;;;1.00;;
17650;SDS011;26663;59.302;18.082;2022-07-06T08:36:57;2.95;;;1.10;;
17650;SDS011;26663;59.302;18.082;2022-07-06T08:40:03;1.67;;;1.58;;
17650;SDS011;26663;59.302;18.082;2022-07-06T08:43:11;4.38;;;1.85;;
17650;SDS011;26663;59.302;18.082;2022-07-06T08:46:17;2.50;;;2.40;;
17650;SDS011;26663;59.302;18.082;2022-07-06T08:49:23;3.95;;;1.60;;
17650;SDS011;26663;59.302;18.082;2022-07-06T08:52:32;3.15;;;1.05;;
17650;SDS011;26663;59.302;18.082;2022-07-06T08:55:37;3.58;;;1.00;;
17650;SDS011;26663;59.302;18.082;2022-07-06T08:58:43;2.47;;;1.20;;
17650;SDS011;26663;59.302;18.082;2022-07-06T09:01:48;3.25;;;1.95;;
17650;SDS011;26663;59.302;18.082;2022-07-06T09:04:54;6.78;;;6.18;;
17650;SDS011;26663;59.302;18.082;2022-07-06T09:08:02;6.82;;;3.63;;
17650;SDS011;26663;59.302;18.082;2022-07-06T09:11:08;2.78;;;2.10;;
17650;SDS011;26663;59.302;18.082;2022-07-06T09:14:13;1.65;;;1.35;;
17650;SDS011;26663;59.302;18.082;2022-07-06T09:17:19;2.33;;;1.10;;
17650;SDS011;26663;59.302;18.082;2022-07-06T09:20:24;1.25;;;1.25;;
17650;SDS011;26663;59.302;18.082;2022-07-06T09:23:31;3.10;;;1.40;;
17650;SDS011;26663;59.302;18.082;2022-07-06T09:26:37;1.77;;;1.20;;
17650;SDS011;26663;59.302;18.082;2022-07-06T09:29:43;4.68;;;1.60;;
17650;SDS011;26663;59.302;18.082;2022-07-06T09:32:50;1.63;;;1.25;;
17650;SDS011;26663;59.302;18.082;2022-07-06T09:35:57;2.15;;;1.42;;
17650;SDS011;26663;59.302;18.082;2022-07-06T09:39:15;4.38;;;1.50;;
17650;SDS011;26663;59.302;18.082;2022-07-06T09:42:25;1.75;;;1.20;;
17650;SDS011;26663;59.302;18.082;2022-07-06T09:45:31;5.93;;;1.10;;
17650;SDS011;26663;59.302;18.082;2022-07-06T09:48:40;1.83;;;1.17;;
17650;SDS011;26663;59.302;18.082;2022-07-06T09:51:45;3.30;;;1.10;;
17650;SDS011;26663;59.302;18.082;2022-07-06T09:54:53;3.75;;;1.10;;
17650;SDS011;26663;59.302;18.082;2022-07-06T09:57:58;3.00;;;1.20;;
17650;SDS011;26663;59.302;18.082;2022-07-06T10:01:03;4.90;;;1.30;;
17650;SDS011;26663;59.302;18.082;2022-07-06T10:04:10;2.10;;;1.23;;
17650;SDS011;26663;59.302;18.082;2022-07-06T10:07:17;2.10;;;1.23;;
17650;SDS011;26663;59.302;18.082;2022-07-06T10:10:24;2.55;;;1.20;;
17650;SDS011;26663;59.302;18.082;2022-07-06T10:13:30;6.18;;;1.60;;
17650;SDS011;26663;59.302;18.082;2022-07-06T10:16:37;2.03;;;1.50;;
17650;SDS011;26663;59.302;18.082;2022-07-06T10:19:43;2.05;;;1.75;;
17650;SDS011;26663;59.302;18.082;2022-07-06T10:22:49;2.80;;;1.45;;
17650;SDS011;26663;59.302;18.082;2022-07-06T10:25:56;2.58;;;1.50;;
17650;SDS011;26663;59.302;18.082;2022-07-06T10:29:02;2.08;;;1.50;;
17650;SDS011;26663;59.302;18.082;2022-07-06T10:32:09;2.65;;;1.20;;
17650;SDS011;26663;59.302;18.082;2022-07-06T10:35:15;1.00;;;1.00;;
17650;SDS011;26663;59.302;18.082;2022-07-06T10:38:24;2.33;;;1.30;;
17650;SDS011;26663;59.302;18.082;2022-07-06T10:41:37;1.58;;;1.25;;
17650;SDS011;26663;59.302;18.082;2022-07-06T10:44:44;1.55;;;1.08;;
17650;SDS011;26663;59.302;18.082;2022-07-06T10:51:22;1.38;;;1.00;;
17650;SDS011;26663;59.302;18.082;2022-07-06T10:54:31;1.95;;;0.93;;
17650;SDS011;26663;59.302;18.082;2022-07-06T10:57:52;3.88;;;1.10;;
17650;SDS011;26663;59.302;18.082;2022-07-06T11:00:57;1.60;;;1.35;;
17650;SDS011;26663;59.302;18.082;2022-07-06T11:04:05;1.30;;;1.17;;
17650;SDS011;26663;59.302;18.082;2022-07-06T11:07:13;1.33;;;1.20;;
17650;SDS011;26663;59.302;18.082;2022-07-06T11:10:19;3.97;;;1.50;;
17650;SDS011;26663;59.302;18.082;2022-07-06T11:13:28;2.25;;;1.40;;
17650;SDS011;26663;59.302;18.082;2022-07-06T11:16:34;2.58;;;1.33;;
17650;SDS011;26663;59.302;18.082;2022-07-06T11:19:48;2.97;;;1.50;;
17650;SDS011;26663;59.302;18.082;2022-07-06T11:22:54;2.25;;;1.20;;
17650;SDS011;26663;59.302;18.082;2022-07-06T11:26:00;0.90;;;0.88;;
17650;SDS011;26663;59.302;18.082;2022-07-06T11:29:07;4.00;;;1.42;;
17650;SDS011;26663;59.302;18.082;2022-07-06T11:32:14;0.93;;;0.90;;
17650;SDS011;26663;59.302;18.082;2022-07-06T11:35:20;2.90;;;0.90;;
17650;SDS011;26663;59.302;18.082;2022-07-06T11:38:26;0.95;;;0.95;;
17650;SDS011;26663;59.302;18.082;2022-07-06T11:41:32;4.25;;;0.80;;
17650;SDS011;26663;59.302;18.082;2022-07-06T11:44:39;0.85;;;0.70;;
17650;SDS011;26663;59.302;18.082;2022-07-06T11:47:45;3.25;;;0.90;;
17650;SDS011;26663;59.302;18.082;2022-07-06T11:50:57;0.93;;;0.93;;
17650;SDS011;26663;59.302;18.082;2022-07-06T11:54:07;1.15;;;1.02;;
17650;SDS011;26663;59.302;18.082;2022-07-06T11:57:13;1.10;;;1.00;;
17650;SDS011;26663;59.302;18.082;2022-07-06T12:00:21;1.00;;;0.88;;
17650;SDS011;26663;59.302;18.082;2022-07-06T12:03:26;1.08;;;0.80;;
17650;SDS011;26663;59.302;18.082;2022-07-06T12:06:32;1.20;;;1.10;;
17650;SDS011;26663;59.302;18.082;2022-07-06T12:09:46;3.35;;;1.30;;
17650;SDS011;26663;59.302;18.082;2022-07-06T12:12:52;1.00;;;1.00;;
17650;SDS011;26663;59.302;18.082;2022-07-06T12:16:12;1.73;;;1.73;;
17650;SDS011;26663;59.302;18.082;2022-07-06T12:19:21;1.20;;;1.20;;
17650;SDS011;26663;59.302;18.082;2022-07-06T12:22:27;1.55;;;1.15;;
17650;SDS011;26663;59.302;18.082;2022-07-06T12:25:33;1.10;;;1.10;;
17650;SDS011;26663;59.302;18.082;2022-07-06T12:28:40;1.30;;;0.88;;
17650;SDS011;26663;59.302;18.082;2022-07-06T12:31:49;1.40;;;1.30;;
17650;SDS011;26663;59.302;18.082;2022-07-06T12:35:02;2.83;;;2.80;;
17650;SDS011;26663;59.302;18.082;2022-07-06T12:38:09;0.90;;;0.90;;
17650;SDS011;26663;59.302;18.082;2022-07-06T12:41:28;2.40;;;0.90;;
17650;SDS011;26663;59.302;18.082;2022-07-06T12:44:41;3.70;;;1.33;;
17650;SDS011;26663;59.302;18.082;2022-07-06T12:47:57;0.85;;;0.82;;
17650;SDS011;26663;59.302;18.082;2022-07-06T12:51:04;0.90;;;0.90;;
17650;SDS011;26663;59.302;18.082;2022-07-06T12:54:12;0.82;;;0.82;;
17650;SDS011;26663;59.302;18.082;2022-07-06T12:57:18;1.38;;;1.27;;
17650;SDS011;26663;59.302;18.082;2022-07-06T13:00:27;5.03;;;0.90;;
17650;SDS011;26663;59.302;18.082;2022-07-06T13:03:38;1.40;;;0.93;;
17650;SDS011;26663;59.302;18.082;2022-07-06T13:06:44;0.98;;;0.90;;
17650;SDS011;26663;59.302;18.082;2022-07-06T13:09:49;5.72;;;1.23;;
17650;SDS011;26663;59.302;18.082;2022-07-06T13:12:54;5.88;;;1.30;;
17650;SDS011;26663;59.302;18.082;2022-07-06T13:16:00;1.50;;;1.10;;
17650;SDS011;26663;59.302;18.082;2022-07-06T13:19:06;1.20;;;1.10;;
17650;SDS011;26663;59.302;18.082;2022-07-06T13:22:12;1.05;;;0.77;;
17650;SDS011;26663;59.302;18.082;2022-07-06T13:25:18;6.20;;;1.50;;
17650;SDS011;26663;59.302;18.082;2022-07-06T13:28:23;4.75;;;1.35;;
17650;SDS011;26663;59.302;18.082;2022-07-06T13:31:28;2.13;;;1.10;;
17650;SDS011;26663;59.302;18.082;2022-07-06T13:34:36;4.50;;;2.05;;
17650;SDS011;26663;59.302;18.082;2022-07-06T13:37:41;2.65;;;1.00;;
17650;SDS011;26663;59.302;18.082;2022-07-06T13:40:46;2.25;;;0.80;;
17650;SDS011;26663;59.302;18.082;2022-07-06T13:43:51;2.83;;;1.00;;
17650;SDS011;26663;59.302;18.082;2022-07-06T13:46:57;0.80;;;0.80;;
17650;SDS011;26663;59.302;18.082;2022-07-06T13:50:04;2.47;;;1.30;;
17650;SDS011;26663;59.302;18.082;2022-07-06T13:53:11;3.15;;;1.30;;
17650;SDS011;26663;59.302;18.082;2022-07-06T13:56:16;9.18;;;1.90;;
17650;SDS011;26663;59.302;18.082;2022-07-06T13:59:21;10.93;;;2.13;;
17650;SDS011;26663;59.302;18.082;2022-07-06T14:02:27;1.17;;;1.02;;
17650;SDS011;26663;59.302;18.082;2022-07-06T14:05:34;4.57;;;1.10;;
17650;SDS011;26663;59.302;18.082;2022-07-06T14:08:39;3.33;;;1.65;;
17650;SDS011;26663;59.302;18.082;2022-07-06T14:11:45;6.32;;;1.73;;
17650;SDS011;26663;59.302;18.082;2022-07-06T14:14:50;3.78;;;1.63;;
17650;SDS011;26663;59.302;18.082;2022-07-06T14:17:55;2.80;;;1.38;;
17650;SDS011;26663;59.302;18.082;2022-07-06T14:21:02;3.22;;;1.23;;
17650;SDS011;26663;59.302;18.082;2022-07-06T14:24:09;1.55;;;1.33;;
17650;SDS011;26663;59.302;18.082;2022-07-06T14:27:14;1.35;;;1.17;;
17650;SDS011;26663;59.302;18.082;2022-07-06T14:30:19;1.90;;;1.10;;
17650;SDS011;26663;59.302;18.082;2022-07-06T14:33:25;2.78;;;1.10;;
17650;SDS011;26663;59.302;18.082;2022-07-06T14:36:32;4.78;;;1.52;;
17650;SDS011;26663;59.302;18.082;2022-07-06T14:39:37;0.90;;;0.90;;
17650;SDS011;26663;59.302;18.082;2022-07-06T14:42:43;2.88;;;1.00;;
17650;SDS011;26663;59.302;18.082;2022-07-06T14:45:48;2.35;;;1.05;;
17650;SDS011;26663;59.302;18.082;2022-07-06T14:48:53;1.10;;;1.10;;
17650;SDS011;26663;59.302;18.082;2022-07-06T14:52:00;1.10;;;1.05;;
17650;SDS011;26663;59.302;18.082;2022-07-06T14:55:05;1.13;;;1.02;;
17650;SDS011;26663;59.302;18.082;2022-07-06T14:58:17;0.90;;;0.90;;
17650;SDS011;26663;59.302;18.082;2022-07-06T15:01:22;1.27;;;1.10;;
17650;SDS011;26663;59.302;18.082;2022-07-06T15:04:28;1.55;;;1.25;;
17650;SDS011;26663;59.302;18.082;2022-07-06T15:07:35;4.15;;;1.30;;
17650;SDS011;26663;59.302;18.082;2022-07-06T15:10:40;2.25;;;1.20;;
17650;SDS011;26663;59.302;18.082;2022-07-06T15:13:46;1.10;;;1.10;;
17650;SDS011;26663;59.302;18.082;2022-07-06T15:16:56;3.50;;;1.70;;
17650;SDS011;26663;59.302;18.082;2022-07-06T15:20:02;1.27;;;1.23;;
17650;SDS011;26663;59.302;18.082;2022-07-06T15:23:09;1.15;;;1.13;;
17650;SDS011;26663;59.302;18.082;2022-07-06T15:26:15;1.45;;;1.40;;
17650;SDS011;26663;59.302;18.082;2022-07-06T15:29:20;3.83;;;1.60;;
17650;SDS011;26663;59.302;18.082;2022-07-06T15:32:25;3.60;;;1.70;;
17650;SDS011;26663;59.302;18.082;2022-07-06T15:35:31;1.80;;;1.15;;
17650;SDS011;26663;59.302;18.082;2022-07-06T15:38:39;1.92;;;1.30;;
17650;SDS011;26663;59.302;18.082;2022-07-06T15:41:44;3.83;;;1.60;;
17650;SDS011;26663;59.302;18.082;2022-07-06T15:44:49;2.53;;;1.30;;
17650;SDS011;26663;59.302;18.082;2022-07-06T15:47:56;2.10;;;1.15;;
17650;SDS011;26663;59.302;18.082;2022-07-06T15:51:01;1.13;;;1.10;;
17650;SDS011;26663;59.302;18.082;2022-07-06T15:54:10;3.05;;;1.20;;
17650;SDS011;26663;59.302;18.082;2022-07-06T15:57:16;1.60;;;1.60;;
17650;SDS011;26663;59.302;18.082;2022-07-06T16:00:21;1.52;;;1.50;;
17650;SDS011;26663;59.302;18.082;2022-07-06T16:03:27;0.98;;;0.98;;
17650;SDS011;26663;59.302;18.082;2022-07-06T16:06:33;1.00;;;1.00;;
17650;SDS011;26663;59.302;18.082;2022-07-06T16:10:01;3.47;;;1.20;;
17650;SDS011;26663;59.302;18.082;2022-07-06T16:13:09;4.20;;;1.08;;
17650;SDS011;26663;59.302;18.082;2022-07-06T16:16:14;0.95;;;0.88;;
17650;SDS011;26663;59.302;18.082;2022-07-06T16:19:19;2.65;;;0.90;;
17650;SDS011;26663;59.302;18.082;2022-07-06T16:22:25;1.55;;;1.00;;
17650;SDS011;26663;59.302;18.082;2022-07-06T16:25:33;0.85;;;0.85;;
17650;SDS011;26663;59.302;18.082;2022-07-06T16:28:38;1.10;;;1.10;;
17650;SDS011;26663;59.302;18.082;2022-07-06T16:31:43;3.85;;;1.40;;
17650;SDS011;26663;59.302;18.082;2022-07-06T16:34:49;3.80;;;1.45;;
17650;SDS011;26663;59.302;18.082;2022-07-06T16:37:54;1.95;;;1.50;;
17650;SDS011;26663;59.302;18.082;2022-07-06T16:41:00;1.65;;;1.20;;
17650;SDS011;26663;59.302;18.082;2022-07-06T16:44:06;2.35;;;1.27;;
17650;SDS011;26663;59.302;18.082;2022-07-06T16:47:11;1.35;;;1.35;;
17650;SDS011;26663;59.302;18.082;2022-07-06T16:50:17;1.35;;;1.10;;
17650;SDS011;26663;59.302;18.082;2022-07-06T16:53:22;2.45;;;1.17;;
17650;SDS011;26663;59.302;18.082;2022-07-06T16:56:29;2.25;;;0.98;;
17650;SDS011;26663;59.302;18.082;2022-07-06T16:59:35;1.45;;;1.20;;
17650;SDS011;26663;59.302;18.082;2022-07-06T17:02:40;1.63;;;1.20;;
17650;SDS011;26663;59.302;18.082;2022-07-06T17:05:45;1.23;;;1.08;;
17650;SDS011;26663;59.302;18.082;2022-07-06T17:08:51;1.45;;;1.40;;
17650;SDS011;26663;59.302;18.082;2022-07-06T17:11:58;2.58;;;1.20;;
17650;SDS011;26663;59.302;18.082;2022-07-06T17:15:05;3.40;;;1.08;;
17650;SDS011;26663;59.302;18.082;2022-07-06T17:18:11;3.67;;;1.25;;
17650;SDS011;26663;59.302;18.082;2022-07-06T17:21:17;1.05;;;0.90;;
17650;SDS011;26663;59.302;18.082;2022-07-06T17:24:23;2.20;;;1.10;;
17650;SDS011;26663;59.302;18.082;2022-07-06T17:27:29;1.95;;;1.17;;
17650;SDS011;26663;59.302;18.082;2022-07-06T17:30:35;1.33;;;1.08;;
17650;SDS011;26663;59.302;18.082;2022-07-06T17:33:40;2.83;;;1.33;;
17650;SDS011;26663;59.302;18.082;2022-07-06T17:36:45;1.10;;;1.10;;
17650;SDS011;26663;59.302;18.082;2022-07-06T17:39:51;2.20;;;1.70;;
17650;SDS011;26663;59.302;18.082;2022-07-06T17:42:57;1.52;;;1.42;;
17650;SDS011;26663;59.302;18.082;2022-07-06T17:46:03;4.03;;;1.27;;
17650;SDS011;26663;59.302;18.082;2022-07-06T17:49:09;1.50;;;1.10;;
17650;SDS011;26663;59.302;18.082;2022-07-06T17:52:21;2.50;;;2.40;;
17650;SDS011;26663;59.302;18.082;2022-07-06T17:55:26;1.70;;;1.63;;
17650;SDS011;26663;59.302;18.082;2022-07-06T17:58:33;1.30;;;1.30;;
17650;SDS011;26663;59.302;18.082;2022-07-06T18:01:38;1.25;;;1.17;;
17650;SDS011;26663;59.302;18.082;2022-07-06T18:04:44;2.47;;;1.40;;
17650;SDS011;26663;59.302;18.082;2022-07-06T18:07:49;3.72;;;1.20;;
17650;SDS011;26663;59.302;18.082;2022-07-06T18:10:55;3.33;;;1.20;;
17650;SDS011;26663;59.302;18.082;2022-07-06T18:14:03;3.08;;;1.20;;
17650;SDS011;26663;59.302;18.082;2022-07-06T18:17:11;1.63;;;1.10;;
17650;SDS011;26663;59.302;18.082;2022-07-06T18:20:17;1.10;;;1.10;;
17650;SDS011;26663;59.302;18.082;2022-07-06T18:23:22;2.80;;;1.10;;
17650;SDS011;26663;59.302;18.082;2022-07-06T18:26:28;2.60;;;1.00;;
17650;SDS011;26663;59.302;18.082;2022-07-06T18:29:35;2.75;;;1.13;;